createdAt,value
2022-11-04T00:01:52.559Z,10.74
2022-11-04T00:04:21.622Z,10.81
2022-11-04T00:06:49.842Z,10.80
2022-11-04T00:09:20.167Z,10.79
2022-11-04T00:12:02.234Z,10.82
2022-11-04T00:14:30.638Z,10.69
2022-11-04T00:17:14.122Z,10.55
2022-11-04T00:19:56.202Z,10.51
2022-11-04T00:22:38.533Z,10.64
2022-11-04T00:25:21.059Z,10.53
2022-11-04T00:28:03.343Z,10.46
2022-11-04T00:30:31.588Z,10.45
2022-11-04T00:33:14.958Z,10.38
2022-11-04T00:35:49.338Z,10.44
2022-11-04T00:38:17.699Z,10.37
2022-11-04T00:40:45.968Z,10.29
2022-11-04T00:43:14.200Z,10.20
2022-11-04T00:45:42.877Z,10.09
2022-11-04T00:48:12.556Z,10.15
2022-11-04T00:50:40.861Z,10.20
2022-11-04T00:53:09.549Z,10.21
2022-11-04T00:55:38.096Z,10.26
2022-11-04T00:58:06.338Z,10.35
2022-11-04T01:00:34.610Z,10.05
2022-11-04T01:03:02.873Z,10.25
2022-11-04T01:05:32.543Z,10.25
2022-11-04T01:08:01.118Z,10.25
2022-11-04T01:10:29.418Z,10.17
2022-11-04T01:12:57.723Z,10.33
2022-11-04T01:15:26.037Z,10.27
2022-11-04T01:17:54.306Z,10.57
2022-11-04T01:20:22.597Z,10.34
2022-11-04T01:22:52.271Z,10.17
2022-11-04T01:25:20.609Z,10.20
2022-11-04T01:27:48.886Z,10.23
2022-11-04T01:30:17.499Z,10.32
2022-11-04T01:32:45.772Z,10.14
2022-11-04T01:35:14.084Z,10.21
2022-11-04T01:37:42.393Z,10.15
2022-11-04T01:40:12.741Z,10.24
2022-11-04T01:42:41.267Z,10.40
2022-11-04T01:45:11.303Z,10.42
2022-11-04T01:47:42.119Z,10.28
2022-11-04T01:50:12.374Z,10.27
2022-11-04T01:52:43.165Z,10.09
2022-11-04T01:55:14.256Z,10.25
2022-11-04T01:57:43.944Z,10.24
2022-11-04T02:00:13.901Z,10.23
2022-11-04T02:02:48.000Z,10.08
2022-11-04T02:05:16.223Z,10.15
2022-11-04T02:07:44.551Z,10.01
2022-11-04T02:10:14.243Z,10.13
2022-11-04T02:12:51.973Z,10.06
2022-11-04T02:15:24.990Z,10.04
2022-11-04T02:18:07.606Z,9.98
2022-11-04T02:20:45.787Z,10.09
2022-11-04T02:23:28.050Z,10.05
2022-11-04T02:26:26.228Z,9.90
2022-11-04T02:29:18.951Z,9.97
2022-11-04T02:31:50.884Z,9.85
2022-11-04T02:34:21.261Z,9.93
2022-11-04T02:36:52.864Z,9.98
2022-11-04T02:39:24.254Z,9.90
2022-11-04T02:41:54.972Z,10.02
2022-11-04T02:44:29.205Z,10.19
2022-11-04T02:47:00.480Z,9.95
2022-11-04T02:49:29.956Z,9.98
2022-11-04T02:52:01.702Z,9.97
2022-11-04T02:54:32.544Z,9.75
2022-11-04T02:57:00.945Z,9.78
2022-11-04T02:59:31.779Z,9.93
2022-11-04T03:02:00.511Z,10.03
2022-11-04T03:04:34.031Z,9.93
2022-11-04T03:07:02.789Z,9.93
2022-11-04T03:09:44.445Z,9.86
2022-11-04T03:12:15.114Z,9.87
2022-11-04T03:14:46.038Z,9.80
2022-11-04T03:17:16.783Z,9.74
2022-11-04T03:19:47.424Z,9.60
2022-11-04T03:22:16.636Z,9.62
2022-11-04T03:24:46.037Z,9.76
2022-11-04T03:27:17.629Z,9.68
2022-11-04T03:29:50.432Z,9.66
2022-11-04T03:32:21.440Z,9.67
2022-11-04T03:34:49.686Z,9.70
2022-11-04T03:37:17.895Z,9.73
2022-11-04T03:39:46.114Z,9.58
2022-11-04T03:42:21.443Z,9.65
2022-11-04T03:44:52.252Z,9.66
2022-11-04T03:47:21.820Z,9.54
2022-11-04T03:49:50.307Z,9.62
2022-11-04T03:52:18.550Z,9.49
2022-11-04T03:54:46.776Z,9.43
2022-11-04T03:57:28.681Z,9.29
2022-11-04T04:00:07.208Z,9.34
2022-11-04T04:02:42.431Z,9.12
2022-11-04T04:05:16.049Z,9.20
2022-11-04T04:07:49.788Z,9.08
2022-11-04T04:10:33.991Z,8.89
2022-11-04T04:13:03.088Z,8.84
2022-11-04T04:15:35.526Z,8.99
2022-11-04T04:18:13.811Z,9.10
2022-11-04T04:20:42.043Z,8.97
2022-11-04T04:23:26.110Z,8.96
2022-11-04T04:26:08.492Z,8.74
2022-11-04T04:28:36.756Z,8.58
2022-11-04T04:31:06.458Z,8.56
2022-11-04T04:33:34.701Z,8.49
2022-11-04T04:36:03.423Z,8.53
2022-11-04T04:38:47.851Z,8.54
2022-11-04T04:41:32.503Z,8.55
2022-11-04T04:44:15.013Z,8.49
2022-11-04T04:46:44.753Z,8.51
2022-11-04T04:49:13.414Z,8.58
2022-11-04T04:51:43.146Z,8.52
2022-11-04T04:54:11.485Z,8.54
2022-11-04T04:56:39.802Z,8.57
2022-11-04T04:59:08.075Z,8.56
2022-11-04T05:01:36.744Z,8.56
2022-11-04T05:04:06.571Z,8.50
2022-11-04T05:06:34.791Z,8.48
2022-11-04T05:09:03.325Z,8.41
2022-11-04T05:11:31.596Z,8.25
2022-11-04T05:13:59.835Z,8.31
2022-11-04T05:16:28.060Z,8.23
2022-11-04T05:18:56.977Z,8.25
2022-11-04T05:21:26.573Z,8.46
2022-11-04T05:23:54.773Z,8.34
2022-11-04T05:26:23.003Z,8.21
2022-11-04T05:28:51.205Z,8.18
2022-11-04T05:31:19.477Z,8.13
2022-11-04T05:33:47.707Z,8.12
2022-11-04T05:36:16.627Z,8.15
2022-11-04T05:38:51.095Z,8.07
2022-11-04T05:41:26.077Z,8.13
2022-11-04T05:43:54.384Z,8.06
2022-11-04T05:46:22.623Z,8.12
2022-11-04T05:48:52.700Z,8.19
2022-11-04T05:51:24.342Z,8.15
2022-11-04T05:53:54.036Z,8.20
2022-11-04T05:56:22.348Z,8.14
2022-11-04T05:58:50.585Z,8.24
2022-11-04T06:01:28.813Z,8.28
2022-11-04T06:03:57.234Z,8.37
2022-11-04T06:06:26.028Z,8.42
2022-11-04T06:08:55.939Z,8.32
2022-11-04T06:11:24.340Z,8.22
2022-11-04T06:13:52.674Z,8.32
2022-11-04T06:16:21.165Z,8.36
2022-11-04T06:18:49.394Z,8.28
2022-11-04T06:21:22.704Z,8.35
2022-11-04T06:23:50.942Z,8.28
2022-11-04T06:26:25.105Z,8.23
2022-11-04T06:28:55.240Z,8.27
2022-11-04T06:31:23.764Z,8.18
2022-11-04T06:33:52.107Z,8.27
2022-11-04T06:36:20.506Z,8.39
2022-11-04T06:38:48.741Z,8.44
2022-11-04T06:41:17.767Z,8.53
2022-11-04T06:43:47.451Z,8.63
2022-11-04T06:46:27.270Z,8.80
2022-11-04T06:48:56.587Z,8.60
2022-11-04T06:51:24.845Z,8.63
2022-11-04T06:53:53.130Z,8.63
2022-11-04T06:56:21.371Z,8.87
2022-11-04T06:58:52.547Z,8.73
2022-11-04T07:01:22.250Z,8.83
2022-11-04T07:03:51.070Z,8.91
2022-11-04T07:06:19.497Z,8.93
2022-11-04T07:08:47.718Z,8.92
2022-11-04T07:11:16.087Z,9.00
2022-11-04T07:13:44.390Z,8.97
2022-11-04T07:16:14.009Z,9.02
2022-11-04T07:18:42.651Z,9.19
2022-11-04T07:21:10.998Z,9.29
2022-11-04T07:23:39.297Z,9.27
2022-11-04T07:26:08.807Z,9.26
2022-11-04T07:28:37.373Z,9.34
2022-11-04T07:31:15.264Z,9.52
2022-11-04T07:33:55.705Z,9.35
2022-11-04T07:36:24.058Z,9.24
2022-11-04T07:38:52.357Z,9.13
2022-11-04T07:41:39.262Z,9.21
2022-11-04T07:44:07.579Z,9.41
2022-11-04T07:46:35.947Z,9.47
2022-11-04T07:49:05.582Z,9.45
2022-11-04T07:51:33.818Z,9.54
2022-11-04T07:54:02.424Z,9.64
2022-11-04T07:56:32.130Z,9.59
2022-11-04T07:59:00.373Z,9.66
2022-11-04T08:01:28.751Z,9.60
2022-11-04T08:03:57.164Z,9.48
2022-11-04T08:06:27.405Z,9.47
2022-11-04T08:08:55.700Z,9.24
2022-11-04T08:11:25.499Z,9.48
2022-11-04T08:13:53.805Z,9.52
2022-11-04T08:16:23.231Z,9.26
2022-11-04T08:18:53.000Z,9.31
2022-11-04T08:21:21.564Z,9.29
2022-11-04T08:23:51.826Z,9.31
2022-11-04T08:26:20.826Z,9.53
2022-11-04T08:28:49.222Z,9.68
2022-11-04T08:31:18.171Z,9.72
2022-11-04T08:33:46.444Z,9.70
2022-11-04T08:36:16.397Z,9.82
2022-11-04T08:38:44.622Z,9.83
2022-11-04T08:41:15.100Z,10.05
2022-11-04T08:43:43.344Z,9.77
2022-11-04T08:46:11.800Z,9.80
2022-11-04T08:48:42.984Z,10.21
2022-11-04T08:51:14.226Z,10.27
2022-11-04T08:53:42.467Z,10.46
2022-11-04T08:56:14.171Z,10.22
2022-11-04T08:58:42.614Z,10.01
2022-11-04T09:01:11.449Z,9.85
2022-11-04T09:03:43.380Z,9.92
2022-11-04T09:06:13.485Z,9.79
2022-11-04T09:08:43.448Z,9.66
2022-11-04T09:11:14.073Z,9.87
2022-11-04T09:13:42.352Z,9.91
2022-11-04T09:16:11.186Z,10.15
2022-11-04T09:18:39.402Z,10.01
2022-11-04T09:21:08.182Z,10.01
2022-11-04T09:23:36.447Z,9.93
2022-11-04T09:26:08.910Z,10.28
2022-11-04T09:28:41.628Z,10.44
2022-11-04T09:31:12.451Z,10.27
2022-11-04T09:33:41.105Z,10.23
2022-11-04T09:36:10.072Z,10.49
2022-11-04T09:38:38.517Z,10.68
2022-11-04T09:41:14.707Z,10.87
2022-11-04T09:43:49.269Z,10.99
2022-11-04T09:46:17.527Z,11.11
2022-11-04T09:48:46.959Z,11.10
2022-11-04T09:51:32.600Z,11.34
2022-11-04T09:54:06.156Z,11.46
2022-11-04T09:56:36.335Z,11.22
2022-11-04T09:59:06.402Z,11.12
2022-11-04T10:01:39.106Z,11.20
2022-11-04T10:04:19.724Z,11.38
2022-11-04T10:06:57.542Z,11.15
2022-11-04T10:09:32.774Z,11.32
2022-11-04T10:12:07.534Z,11.45
2022-11-04T10:14:46.903Z,11.54
2022-11-04T10:17:24.919Z,11.44
2022-11-04T10:20:00.010Z,11.38
2022-11-04T10:22:31.535Z,11.61
2022-11-04T10:25:04.609Z,11.56
2022-11-04T10:27:34.719Z,11.43
2022-11-04T10:30:05.906Z,11.52
2022-11-04T10:32:36.735Z,11.13
2022-11-04T10:35:07.379Z,11.19
2022-11-04T10:37:35.749Z,11.29
2022-11-04T10:40:19.455Z,11.68
2022-11-04T10:42:47.736Z,11.64
2022-11-04T10:45:17.567Z,11.43
2022-11-04T10:47:49.441Z,11.58
2022-11-04T10:50:31.415Z,11.90
2022-11-04T10:53:13.008Z,11.62
2022-11-04T10:55:44.761Z,11.68
2022-11-04T10:58:16.526Z,11.96
2022-11-04T11:00:46.239Z,11.80
2022-11-04T11:03:25.205Z,11.81
2022-11-04T11:05:53.541Z,11.84
2022-11-04T11:08:30.555Z,12.15
2022-11-04T11:10:58.874Z,12.06
2022-11-04T11:13:28.397Z,12.24
2022-11-04T11:16:09.413Z,12.27
2022-11-04T11:18:38.847Z,12.17
2022-11-04T11:21:09.772Z,12.73
2022-11-04T11:23:40.720Z,12.44
2022-11-04T11:26:11.109Z,12.35
2022-11-04T11:28:40.989Z,12.43
2022-11-04T11:31:16.573Z,12.62
2022-11-04T11:33:50.420Z,12.44
2022-11-04T11:36:21.123Z,12.47
2022-11-04T11:38:55.057Z,12.48
2022-11-04T11:41:37.401Z,12.28
2022-11-04T11:44:10.367Z,12.35
2022-11-04T11:46:45.024Z,12.45
2022-11-04T11:50:01.829Z,12.64
2022-11-04T11:52:51.970Z,12.40
2022-11-04T11:55:27.855Z,12.65
2022-11-04T12:01:05.206Z,12.61
2022-11-04T12:09:34.401Z,12.73
2022-11-04T12:12:08.912Z,12.62
2022-11-04T12:14:48.846Z,12.75
2022-11-04T12:17:26.470Z,12.58
2022-11-04T12:20:04.187Z,12.67
2022-11-04T12:22:37.952Z,12.60
2022-11-04T12:25:11.220Z,12.34
2022-11-04T12:27:41.356Z,12.26
2022-11-04T12:30:11.347Z,12.45
2022-11-04T12:32:45.544Z,12.26
2022-11-04T12:35:23.925Z,12.17
2022-11-04T12:38:00.027Z,12.22
2022-11-04T12:40:29.724Z,12.18
2022-11-04T12:43:05.791Z,12.25
2022-11-04T12:45:38.920Z,12.03
2022-11-04T12:48:11.438Z,12.23
2022-11-04T12:50:51.155Z,12.09
2022-11-04T12:53:38.869Z,12.15
2022-11-04T12:56:09.396Z,12.19
2022-11-04T12:58:46.955Z,12.14
2022-11-04T13:01:17.154Z,12.07
2022-11-04T13:03:50.212Z,12.21
2022-11-04T13:06:20.991Z,12.24
2022-11-04T13:09:00.151Z,12.17
2022-11-04T13:11:30.598Z,12.21
2022-11-04T13:14:02.304Z,11.89
2022-11-04T13:16:31.251Z,11.94
2022-11-04T13:19:00.068Z,12.13
2022-11-04T13:21:36.335Z,12.13
2022-11-04T13:24:05.959Z,12.29
2022-11-04T13:26:34.246Z,12.08
2022-11-04T13:29:08.853Z,11.98
2022-11-04T13:31:45.690Z,11.99
2022-11-04T13:34:23.175Z,11.98
2022-11-04T13:36:54.393Z,11.98
2022-11-04T13:39:23.962Z,11.91
2022-11-04T13:42:09.040Z,12.25
2022-11-04T13:44:37.822Z,12.18
2022-11-04T13:47:08.038Z,12.09
2022-11-04T13:49:38.054Z,12.24
2022-11-04T13:52:09.322Z,12.25
2022-11-04T13:54:39.329Z,12.14
2022-11-04T13:57:09.481Z,12.09
2022-11-04T13:59:37.905Z,12.28
2022-11-04T14:02:26.929Z,12.25
2022-11-04T14:04:56.528Z,11.95
2022-11-04T14:08:04.680Z,12.07
2022-11-04T14:10:39.537Z,12.05
2022-11-04T14:13:39.049Z,12.20
2022-11-04T14:16:08.212Z,12.15
2022-11-04T14:18:37.042Z,12.23
2022-11-04T14:21:07.518Z,12.43
2022-11-04T14:23:37.437Z,12.36
2022-11-04T14:26:06.584Z,12.34
2022-11-04T14:28:35.130Z,12.25
2022-11-04T14:31:03.672Z,12.30
2022-11-04T14:33:36.351Z,12.32
2022-11-04T14:36:18.030Z,12.29
2022-11-04T14:38:53.457Z,12.01
2022-11-04T14:41:24.154Z,12.13
2022-11-04T14:43:53.356Z,12.05
2022-11-04T14:46:26.663Z,12.21
2022-11-04T14:48:56.066Z,12.34
2022-11-04T14:52:11.124Z,12.27
2022-11-04T14:54:41.465Z,12.04
2022-11-04T14:57:15.521Z,12.26
2022-11-04T14:59:44.177Z,12.27
2022-11-04T15:02:16.306Z,11.99
2022-11-04T15:04:51.034Z,12.02
2022-11-04T15:07:27.649Z,12.09
2022-11-04T15:09:57.303Z,12.20
2022-11-04T15:12:39.400Z,12.16
2022-11-04T15:15:28.234Z,12.01
2022-11-04T15:17:59.059Z,11.92
2022-11-04T15:20:31.857Z,12.07
2022-11-04T15:23:01.692Z,11.83
2022-11-04T15:25:32.925Z,11.77
2022-11-04T15:28:01.163Z,11.61
2022-11-04T15:30:31.104Z,11.65
2022-11-04T15:33:01.248Z,11.63
2022-11-04T15:35:30.513Z,11.54
2022-11-04T15:37:59.333Z,11.61
2022-11-04T15:40:29.252Z,11.63
2022-11-04T15:42:58.346Z,11.73
2022-11-04T15:45:29.334Z,11.82
2022-11-04T15:48:22.764Z,11.66
2022-11-04T15:50:54.223Z,11.66
2022-11-04T15:53:22.636Z,11.64
2022-11-04T15:55:50.872Z,11.65
2022-11-04T15:58:20.486Z,11.59
2022-11-04T16:00:56.446Z,11.55
2022-11-04T16:03:25.801Z,11.55
2022-11-04T16:06:04.162Z,11.51
2022-11-04T16:08:32.764Z,11.43
2022-11-04T16:11:13.267Z,11.48
2022-11-04T16:13:43.223Z,11.45
2022-11-04T16:16:21.843Z,11.20
2022-11-04T16:18:53.133Z,11.20
2022-11-04T16:21:24.187Z,11.32
2022-11-04T16:23:53.667Z,11.12
2022-11-04T16:26:25.914Z,11.17
2022-11-04T16:28:56.612Z,11.08
2022-11-04T16:31:26.548Z,11.09
2022-11-04T16:33:54.802Z,11.01
2022-11-04T16:36:29.709Z,11.02
2022-11-04T16:39:03.765Z,11.02
2022-11-04T16:41:35.053Z,11.04
2022-11-04T16:44:05.285Z,11.04
2022-11-04T16:46:38.091Z,10.98
2022-11-04T16:49:09.572Z,10.84
2022-11-04T16:51:37.787Z,10.72
2022-11-04T16:54:06.101Z,10.62
2022-11-04T16:56:34.529Z,10.64
2022-11-04T16:59:04.119Z,10.79
2022-11-04T17:01:32.813Z,10.66
2022-11-04T17:04:01.806Z,10.57
2022-11-04T17:06:30.407Z,10.65
2022-11-04T17:08:58.631Z,10.66
2022-11-04T17:11:26.878Z,10.62
2022-11-04T17:13:55.404Z,10.62
2022-11-04T17:16:25.010Z,10.65
2022-11-04T17:18:53.223Z,10.77
2022-11-04T17:21:21.890Z,10.61
2022-11-04T17:23:50.101Z,10.62
2022-11-04T17:26:18.391Z,10.61
2022-11-04T17:28:46.614Z,10.65
2022-11-04T17:31:17.313Z,10.49
2022-11-04T17:33:47.425Z,10.62
2022-11-04T17:36:17.429Z,10.57
2022-11-04T17:38:45.668Z,10.50
2022-11-04T17:41:27.721Z,10.51
2022-11-04T17:44:02.332Z,10.58
2022-11-04T17:46:35.802Z,10.49
2022-11-04T17:49:07.481Z,10.62
2022-11-04T17:51:35.778Z,10.38
2022-11-04T17:54:04.305Z,10.36
2022-11-04T17:56:32.581Z,10.40
2022-11-04T17:59:02.339Z,10.28
2022-11-04T18:01:30.684Z,10.35
2022-11-04T18:03:59.337Z,10.34
2022-11-04T18:06:30.725Z,10.44
2022-11-04T18:08:59.253Z,10.31
2022-11-04T18:11:42.088Z,10.39
2022-11-04T18:14:16.262Z,10.29
2022-11-04T18:19:34.542Z,10.19
2022-11-04T18:22:05.989Z,10.14
2022-11-04T18:24:34.254Z,10.27
2022-11-04T18:27:02.580Z,10.34
2022-11-04T18:29:30.787Z,10.21
2022-11-04T18:32:00.194Z,10.04
2022-11-04T18:34:32.972Z,10.08
2022-11-04T18:37:07.268Z,9.96
2022-11-04T18:39:39.740Z,10.09
2022-11-04T18:42:08.007Z,10.05
2022-11-04T18:44:36.824Z,10.10
2022-11-04T18:47:05.200Z,10.13
2022-11-04T18:49:33.414Z,10.18
2022-11-04T18:52:03.714Z,10.13
2022-11-04T18:54:36.620Z,10.27
2022-11-04T18:57:05.666Z,10.14
2022-11-04T18:59:33.893Z,10.27
2022-11-04T19:02:02.272Z,10.23
2022-11-04T19:04:30.754Z,10.24
2022-11-04T19:06:59.171Z,10.24
2022-11-04T19:12:30.755Z,10.26
2022-11-04T19:14:59.274Z,10.20
2022-11-04T19:17:29.115Z,10.16
2022-11-04T19:20:00.026Z,10.14
2022-11-04T19:22:28.640Z,10.05
2022-11-04T19:24:56.876Z,9.98
2022-11-04T19:27:26.460Z,10.03
2022-11-04T19:29:54.694Z,9.83
2022-11-04T19:32:22.905Z,9.73
2022-11-04T19:34:51.127Z,9.80
2022-11-04T19:37:19.363Z,9.73
2022-11-04T19:39:47.672Z,9.76
2022-11-04T19:42:33.080Z,9.69
2022-11-04T19:45:03.009Z,9.66
2022-11-04T19:47:48.475Z,9.69
2022-11-04T19:50:16.766Z,9.58
2022-11-04T19:52:44.961Z,9.41
2022-11-04T19:55:15.560Z,9.52
2022-11-04T19:57:46.328Z,9.43
2022-11-04T20:00:16.509Z,9.56
2022-11-04T20:02:45.051Z,9.60
2022-11-04T20:05:13.297Z,9.65
2022-11-04T20:07:41.670Z,9.71
2022-11-04T20:10:10.774Z,9.77
2022-11-04T20:12:52.832Z,9.73
2022-11-04T20:15:22.590Z,9.84
2022-11-04T20:17:50.799Z,9.77
2022-11-04T20:20:19.084Z,9.78
2022-11-04T20:22:47.671Z,9.84
2022-11-04T20:25:16.012Z,9.87
2022-11-04T20:27:44.303Z,9.80
2022-11-04T20:30:13.644Z,9.84
2022-11-04T20:32:43.263Z,9.98
2022-11-04T20:35:11.500Z,9.99
2022-11-04T20:37:39.961Z,10.01
2022-11-04T20:40:09.534Z,9.90
2022-11-04T20:42:37.803Z,9.82
2022-11-04T20:45:06.773Z,9.80
2022-11-04T20:47:36.164Z,9.88
2022-11-04T20:50:06.359Z,9.88
2022-11-04T20:52:35.701Z,9.69
2022-11-04T20:55:04.232Z,9.50
2022-11-04T20:57:32.722Z,9.62
2022-11-04T21:00:01.023Z,9.72
2022-11-04T21:02:29.406Z,9.65
2022-11-04T21:04:58.642Z,9.62
2022-11-04T21:07:28.251Z,9.54
2022-11-04T21:09:56.491Z,9.63
2022-11-04T21:12:24.807Z,9.52
2022-11-04T21:14:53.039Z,9.50
2022-11-04T21:17:21.963Z,9.43
2022-11-04T21:19:50.418Z,9.58
2022-11-04T21:22:18.704Z,9.70
2022-11-04T21:24:48.843Z,9.70
2022-11-04T21:27:17.234Z,9.65
2022-11-04T21:29:45.736Z,9.74
2022-11-04T21:32:13.966Z,9.67
2022-11-04T21:34:42.194Z,9.74
2022-11-04T21:37:10.524Z,9.77
2022-11-04T21:39:38.734Z,9.83
2022-11-04T21:42:08.348Z,9.95
2022-11-04T21:44:36.860Z,9.95
2022-11-04T21:47:05.134Z,9.98
2022-11-04T21:49:33.552Z,10.06
2022-11-04T21:52:02.449Z,9.94
2022-11-04T21:54:30.883Z,10.06
2022-11-04T21:56:59.519Z,9.75
2022-11-04T21:59:29.444Z,9.85
2022-11-04T22:01:57.812Z,9.88
2022-11-04T22:04:26.087Z,9.91
2022-11-04T22:06:54.310Z,10.14
2022-11-04T22:09:22.861Z,9.93
2022-11-04T22:11:51.078Z,10.12
2022-11-04T22:14:19.368Z,10.00
2022-11-04T22:16:48.992Z,9.90
2022-11-04T22:19:17.214Z,9.91
2022-11-04T22:21:46.185Z,9.95
2022-11-04T22:24:15.926Z,9.99
2022-11-04T22:26:44.361Z,10.09
2022-11-04T22:29:12.615Z,9.72
2022-11-04T22:31:41.739Z,9.51
2022-11-04T22:34:11.353Z,9.50
2022-11-04T22:36:39.868Z,9.43
2022-11-04T22:39:11.861Z,9.40
2022-11-04T22:41:43.966Z,9.63
2022-11-04T22:44:12.176Z,9.63
2022-11-04T22:46:40.407Z,9.69
2022-11-04T22:49:10.169Z,9.59
2022-11-04T22:51:38.603Z,9.71
2022-11-04T22:54:08.941Z,9.75
2022-11-04T22:56:37.476Z,9.64
2022-11-04T22:59:05.729Z,9.53
2022-11-04T23:01:34.527Z,9.52
2022-11-04T23:04:03.033Z,9.45
2022-11-04T23:06:32.834Z,9.42
2022-11-04T23:09:01.450Z,9.29
2022-11-04T23:11:43.536Z,9.47
2022-11-04T23:14:26.380Z,9.26
2022-11-04T23:17:08.405Z,9.36
2022-11-04T23:19:36.926Z,9.42
2022-11-04T23:22:20.547Z,9.48
2022-11-04T23:25:02.931Z,9.39
2022-11-04T23:27:45.577Z,9.30
2022-11-04T23:30:22.675Z,9.38
2022-11-04T23:32:50.963Z,9.28
2022-11-04T23:35:33.062Z,9.30
2022-11-04T23:38:02.650Z,9.25
2022-11-04T23:40:31.927Z,9.30
2022-11-04T23:42:59.143Z,9.33
2022-11-04T23:45:41.163Z,9.34
2022-11-04T23:48:24.039Z,9.45
2022-11-04T23:51:10.149Z,9.52
2022-11-04T23:53:53.539Z,9.45
2022-11-04T23:56:35.531Z,9.39
2022-11-04T23:59:17.555Z,9.23
